sensor_id;sensor_type;location;lat;lon;timestamp;noise_LAeq;noise_LA_min;noise_LA_max;noise_LA01;noise_LA95
43385;Laerm;28988;48.042;7.584;2023-05-07T00:00:50;86.88;-47.13;98.58;;
43385;Laerm;28988;48.042;7.584;2023-05-07T00:03:16;86.63;-41.97;98.42;;
43385;Laerm;28988;48.042;7.584;2023-05-07T00:05:41;86.49;-30.76;97.89;;
43385;Laerm;28988;48.042;7.584;2023-05-07T00:08:06;86.38;-39.22;98.41;;
43385;Laerm;28988;48.042;7.584;2023-05-07T00:10:31;86.18;-43.56;96.50;;
43385;Laerm;28988;48.042;7.584;2023-05-07T00:12:57;85.95;-33.66;96.81;;
43385;Laerm;28988;48.042;7.584;2023-05-07T00:15:22;85.83;-25.84;97.30;;
43385;Laerm;28988;48.042;7.584;2023-05-07T00:17:47;85.76;-47.13;99.19;;
43385;Laerm;28988;48.042;7.584;2023-05-07T00:20:12;85.55;-31.15;97.31;;
43385;Laerm;28988;48.042;7.584;2023-05-07T00:22:37;85.37;-38.71;97.26;;
43385;Laerm;28988;48.042;7.584;2023-05-07T00:25:03;85.29;-39.22;96.58;;
43385;Laerm;28988;48.042;7.584;2023-05-07T00:27:28;85.27;-31.12;98.46;;
43385;Laerm;28988;48.042;7.584;2023-05-07T00:29:53;85.34;-38.65;97.40;;
43385;Laerm;28988;48.042;7.584;2023-05-07T00:32:18;85.30;-47.13;96.20;;
43385;Laerm;28988;48.042;7.584;2023-05-07T00:34:44;85.32;-38.65;97.33;;
43385;Laerm;28988;48.042;7.584;2023-05-07T00:37:09;85.39;-23.58;96.21;;
43385;Laerm;28988;48.042;7.584;2023-05-07T00:39:35;85.34;-33.03;96.84;;
43385;Laerm;28988;48.042;7.584;2023-05-07T00:42:00;85.25;-30.34;97.00;;
43385;Laerm;28988;48.042;7.584;2023-05-07T00:44:25;85.27;-36.88;96.40;;
43385;Laerm;28988;48.042;7.584;2023-05-07T00:46:51;85.20;-35.88;96.48;;
43385;Laerm;28988;48.042;7.584;2023-05-07T00:49:16;85.17;-41.79;96.77;;
43385;Laerm;28988;48.042;7.584;2023-05-07T00:51:41;85.15;-30.89;96.26;;
43385;Laerm;28988;48.042;7.584;2023-05-07T00:54:07;85.12;-38.65;96.19;;
43385;Laerm;28988;48.042;7.584;2023-05-07T00:56:32;85.09;-30.89;96.07;;
43385;Laerm;28988;48.042;7.584;2023-05-07T00:58:57;85.12;-30.09;97.24;;
43385;Laerm;28988;48.042;7.584;2023-05-07T01:01:23;85.17;-41.37;96.56;;
43385;Laerm;28988;48.042;7.584;2023-05-07T01:03:48;85.18;-28.64;96.99;;
43385;Laerm;28988;48.042;7.584;2023-05-07T01:06:13;85.26;-65.12;96.40;;
43385;Laerm;28988;48.042;7.584;2023-05-07T01:08:41;85.32;-38.42;97.08;;
43385;Laerm;28988;48.042;7.584;2023-05-07T01:11:07;85.48;-39.66;97.20;;
43385;Laerm;28988;48.042;7.584;2023-05-07T01:13:33;85.67;-49.17;96.44;;
43385;Laerm;28988;48.042;7.584;2023-05-07T01:15:59;85.75;-36.29;96.48;;
43385;Laerm;28988;48.042;7.584;2023-05-07T01:18:24;86.02;-34.15;97.92;;
43385;Laerm;28988;48.042;7.584;2023-05-07T01:20:51;86.40;-43.56;100.32;;
43385;Laerm;28988;48.042;7.584;2023-05-07T01:23:16;86.66;-37.08;97.54;;
43385;Laerm;28988;48.042;7.584;2023-05-07T01:25:42;87.21;-38.42;98.10;;
43385;Laerm;28988;48.042;7.584;2023-05-07T01:28:07;87.46;-89.71;99.95;;
43385;Laerm;28988;48.042;7.584;2023-05-07T01:30:32;87.91;-28.26;100.69;;
43385;Laerm;28988;48.042;7.584;2023-05-07T01:35:27;88.33;-33.15;99.94;;
43385;Laerm;28988;48.042;7.584;2023-05-07T01:37:53;88.46;-19.93;99.30;;
43385;Laerm;28988;48.042;7.584;2023-05-07T01:40:19;88.87;-34.68;102.22;;
43385;Laerm;28988;48.042;7.584;2023-05-07T01:42:45;89.22;-28.96;102.30;;
43385;Laerm;28988;48.042;7.584;2023-05-07T01:45:11;89.53;-40.53;100.82;;
43385;Laerm;28988;48.042;7.584;2023-05-07T01:47:37;89.83;-36.57;101.34;;
43385;Laerm;28988;48.042;7.584;2023-05-07T01:50:03;90.10;-25.72;103.26;;
43385;Laerm;28988;48.042;7.584;2023-05-07T01:52:28;90.51;-23.46;102.63;;
43385;Laerm;28988;48.042;7.584;2023-05-07T01:54:54;90.58;-37.13;101.61;;
43385;Laerm;28988;48.042;7.584;2023-05-07T01:57:19;90.69;-33.19;102.75;;
43385;Laerm;28988;48.042;7.584;2023-05-07T01:59:44;90.82;-42.12;102.78;;
43385;Laerm;28988;48.042;7.584;2023-05-07T02:02:09;90.99;-32.34;103.76;;
43385;Laerm;28988;48.042;7.584;2023-05-07T02:04:35;91.14;-39.22;102.46;;
43385;Laerm;28988;48.042;7.584;2023-05-07T02:07:00;91.37;-41.48;101.99;;
43385;Laerm;28988;48.042;7.584;2023-05-07T02:09:25;91.69;-47.93;102.27;;
43385;Laerm;28988;48.042;7.584;2023-05-07T02:11:50;92.13;-38.04;103.84;;
43385;Laerm;28988;48.042;7.584;2023-05-07T02:14:15;92.31;-14.86;103.79;;
43385;Laerm;28988;48.042;7.584;2023-05-07T02:16:41;92.24;-48.10;102.55;;
43385;Laerm;28988;48.042;7.584;2023-05-07T02:19:06;92.53;-22.95;102.51;;
43385;Laerm;28988;48.042;7.584;2023-05-07T02:21:31;92.95;-30.41;103.39;;
43385;Laerm;28988;48.042;7.584;2023-05-07T02:23:56;93.36;-21.42;104.55;;
43385;Laerm;28988;48.042;7.584;2023-05-07T02:26:21;93.92;-25.49;103.43;;
43385;Laerm;28988;48.042;7.584;2023-05-07T02:28:47;94.00;-41.73;103.52;;
43385;Laerm;28988;48.042;7.584;2023-05-07T02:31:12;94.00;-19.98;103.48;;
43385;Laerm;28988;48.042;7.584;2023-05-07T02:33:37;94.22;-75.39;104.57;;
43385;Laerm;28988;48.042;7.584;2023-05-07T02:36:09;94.36;-30.94;104.53;;
43385;Laerm;28988;48.042;7.584;2023-05-07T02:38:34;94.53;-36.32;103.54;;
43385;Laerm;28988;48.042;7.584;2023-05-07T02:40:59;94.68;-24.29;103.56;;
43385;Laerm;28988;48.042;7.584;2023-05-07T02:43:25;94.62;-25.35;104.39;;
43385;Laerm;28988;48.042;7.584;2023-05-07T02:45:59;94.51;-27.25;104.24;;
43385;Laerm;28988;48.042;7.584;2023-05-07T02:48:25;94.70;-27.81;103.71;;
43385;Laerm;28988;48.042;7.584;2023-05-07T02:50:50;95.33;-26.88;103.75;;
43385;Laerm;28988;48.042;7.584;2023-05-07T02:53:15;95.44;-27.10;104.44;;
43385;Laerm;28988;48.042;7.584;2023-05-07T02:55:40;94.85;-24.03;103.53;;
43385;Laerm;28988;48.042;7.584;2023-05-07T02:58:05;94.43;-34.61;103.76;;
43385;Laerm;28988;48.042;7.584;2023-05-07T03:00:30;94.23;-19.05;103.59;;
43385;Laerm;28988;48.042;7.584;2023-05-07T03:02:55;94.03;-23.21;103.65;;
43385;Laerm;28988;48.042;7.584;2023-05-07T03:05:21;93.83;-41.02;104.62;;
43385;Laerm;28988;48.042;7.584;2023-05-07T03:07:46;93.48;-62.29;103.73;;
43385;Laerm;28988;48.042;7.584;2023-05-07T03:10:12;93.24;-43.77;103.77;;
43385;Laerm;28988;48.042;7.584;2023-05-07T03:12:37;93.34;-20.44;103.14;;
43385;Laerm;28988;48.042;7.584;2023-05-07T03:15:02;94.12;-45.44;104.85;;
43385;Laerm;28988;48.042;7.584;2023-05-07T03:17:28;94.81;-25.60;104.31;;
43385;Laerm;28988;48.042;7.584;2023-05-07T03:19:53;95.34;-37.68;103.76;;
43385;Laerm;28988;48.042;7.584;2023-05-07T03:22:18;95.27;-20.35;103.76;;
43385;Laerm;28988;48.042;7.584;2023-05-07T03:24:43;95.28;-32.85;103.81;;
43385;Laerm;28988;48.042;7.584;2023-05-07T03:27:08;94.70;-27.36;104.64;;
43385;Laerm;28988;48.042;7.584;2023-05-07T03:29:33;94.41;-29.42;103.18;;
43385;Laerm;28988;48.042;7.584;2023-05-07T03:31:59;93.94;-17.73;103.48;;
43385;Laerm;28988;48.042;7.584;2023-05-07T03:34:24;93.93;-27.94;103.35;;
43385;Laerm;28988;48.042;7.584;2023-05-07T03:36:49;94.45;-43.89;104.89;;
43385;Laerm;28988;48.042;7.584;2023-05-07T03:39:14;94.76;-11.17;103.84;;
43385;Laerm;28988;48.042;7.584;2023-05-07T03:41:40;95.05;-22.14;103.91;;
43385;Laerm;28988;48.042;7.584;2023-05-07T03:44:05;95.35;-30.93;103.77;;
43385;Laerm;28988;48.042;7.584;2023-05-07T03:46:30;95.37;-25.51;104.42;;
43385;Laerm;28988;48.042;7.584;2023-05-07T03:48:57;95.38;-23.86;104.57;;
43385;Laerm;28988;48.042;7.584;2023-05-07T03:51:22;95.17;-24.87;104.17;;
43385;Laerm;28988;48.042;7.584;2023-05-07T03:53:48;95.42;-22.99;103.97;;
43385;Laerm;28988;48.042;7.584;2023-05-07T03:56:13;96.11;-26.28;105.15;;
43385;Laerm;28988;48.042;7.584;2023-05-07T03:58:38;96.58;-16.78;105.08;;
43385;Laerm;28988;48.042;7.584;2023-05-07T04:01:03;95.84;-22.33;104.16;;
43385;Laerm;28988;48.042;7.584;2023-05-07T04:03:29;96.02;-28.16;104.12;;
43385;Laerm;28988;48.042;7.584;2023-05-07T04:05:54;95.97;-30.71;104.02;;
43385;Laerm;28988;48.042;7.584;2023-05-07T04:08:19;95.87;-28.41;105.65;;
43385;Laerm;28988;48.042;7.584;2023-05-07T04:10:44;95.62;-40.24;104.28;;
43385;Laerm;28988;48.042;7.584;2023-05-07T04:13:10;95.52;-30.00;103.77;;
43385;Laerm;28988;48.042;7.584;2023-05-07T04:15:35;95.16;-28.65;103.45;;
43385;Laerm;28988;48.042;7.584;2023-05-07T04:18:00;94.72;-53.07;104.97;;
43385;Laerm;28988;48.042;7.584;2023-05-07T04:20:25;94.24;-26.53;103.99;;
43385;Laerm;28988;48.042;7.584;2023-05-07T04:22:51;94.05;-44.66;103.84;;
43385;Laerm;28988;48.042;7.584;2023-05-07T04:25:16;93.59;-35.37;103.03;;
43385;Laerm;28988;48.042;7.584;2023-05-07T04:27:41;93.45;-41.84;103.13;;
43385;Laerm;28988;48.042;7.584;2023-05-07T04:30:06;93.94;-46.88;104.13;;
43385;Laerm;28988;48.042;7.584;2023-05-07T04:32:32;94.71;-39.31;103.53;;
43385;Laerm;28988;48.042;7.584;2023-05-07T04:34:57;95.25;-29.12;103.77;;
43385;Laerm;28988;48.042;7.584;2023-05-07T04:37:22;95.64;-23.09;104.37;;
43385;Laerm;28988;48.042;7.584;2023-05-07T04:39:47;96.71;-33.41;105.47;;
43385;Laerm;28988;48.042;7.584;2023-05-07T04:42:16;97.23;-28.18;104.64;;
43385;Laerm;28988;48.042;7.584;2023-05-07T04:44:41;97.17;-33.94;104.62;;
43385;Laerm;28988;48.042;7.584;2023-05-07T04:47:07;96.61;-34.87;104.24;;
43385;Laerm;28988;48.042;7.584;2023-05-07T04:49:32;96.17;-35.10;104.51;;
43385;Laerm;28988;48.042;7.584;2023-05-07T04:51:57;95.40;-40.93;104.85;;
43385;Laerm;28988;48.042;7.584;2023-05-07T04:54:22;94.19;-42.58;103.56;;
43385;Laerm;28988;48.042;7.584;2023-05-07T04:56:47;92.46;-40.80;103.28;;
43385;Laerm;28988;48.042;7.584;2023-05-07T04:59:13;91.30;-30.99;102.39;;
43385;Laerm;28988;48.042;7.584;2023-05-07T05:01:38;90.51;-41.88;102.60;;
43385;Laerm;28988;48.042;7.584;2023-05-07T05:04:03;89.69;-24.62;101.74;;
43385;Laerm;28988;48.042;7.584;2023-05-07T05:06:28;89.01;-17.86;101.52;;
43385;Laerm;28988;48.042;7.584;2023-05-07T05:08:53;88.42;-21.19;99.88;;
43385;Laerm;28988;48.042;7.584;2023-05-07T05:11:18;88.08;-41.27;102.07;;
43385;Laerm;28988;48.042;7.584;2023-05-07T05:13:44;87.86;-38.65;100.53;;
43385;Laerm;28988;48.042;7.584;2023-05-07T05:16:09;87.52;-30.20;98.90;;
43385;Laerm;28988;48.042;7.584;2023-05-07T05:18:34;87.19;-26.78;100.37;;
43385;Laerm;28988;48.042;7.584;2023-05-07T05:20:59;86.94;-38.71;99.40;;
43385;Laerm;28988;48.042;7.584;2023-05-07T05:23:25;86.66;-32.90;99.36;;
43385;Laerm;28988;48.042;7.584;2023-05-07T05:25:50;86.15;-31.54;99.97;;
43385;Laerm;28988;48.042;7.584;2023-05-07T05:28:19;85.90;-47.13;97.78;;
43385;Laerm;28988;48.042;7.584;2023-05-07T05:30:45;85.61;-38.65;97.64;;
43385;Laerm;28988;48.042;7.584;2023-05-07T05:33:10;85.39;-39.78;96.73;;
43385;Laerm;28988;48.042;7.584;2023-05-07T05:35:35;85.18;-46.65;96.48;;
43385;Laerm;28988;48.042;7.584;2023-05-07T05:38:00;85.03;-59.63;96.98;;
43385;Laerm;28988;48.042;7.584;2023-05-07T05:40:26;84.85;-48.09;96.06;;
43385;Laerm;28988;48.042;7.584;2023-05-07T05:42:51;84.66;-47.27;95.90;;
43385;Laerm;28988;48.042;7.584;2023-05-07T05:45:16;84.54;-41.29;95.86;;
43385;Laerm;28988;48.042;7.584;2023-05-07T05:47:42;84.44;-35.65;95.44;;
43385;Laerm;28988;48.042;7.584;2023-05-07T05:50:07;84.41;-33.62;95.84;;
43385;Laerm;28988;48.042;7.584;2023-05-07T05:52:33;84.37;-57.68;95.62;;
43385;Laerm;28988;48.042;7.584;2023-05-07T05:54:58;84.38;-55.63;96.33;;
43385;Laerm;28988;48.042;7.584;2023-05-07T05:57:23;84.36;-57.68;95.83;;
43385;Laerm;28988;48.042;7.584;2023-05-07T05:59:48;84.37;-21.56;95.25;;
43385;Laerm;28988;48.042;7.584;2023-05-07T06:02:13;84.36;-23.73;96.05;;
43385;Laerm;28988;48.042;7.584;2023-05-07T06:04:39;84.34;-57.68;96.05;;
43385;Laerm;28988;48.042;7.584;2023-05-07T06:07:04;84.33;-47.13;95.57;;
43385;Laerm;28988;48.042;7.584;2023-05-07T06:09:29;84.35;-28.29;95.68;;
43385;Laerm;28988;48.042;7.584;2023-05-07T06:11:55;84.35;-23.73;95.98;;
43385;Laerm;28988;48.042;7.584;2023-05-07T06:14:20;84.35;-57.68;95.58;;
43385;Laerm;28988;48.042;7.584;2023-05-07T06:16:45;84.35;-28.29;95.58;;
43385;Laerm;28988;48.042;7.584;2023-05-07T06:19:10;84.33;-40.51;95.79;;
43385;Laerm;28988;48.042;7.584;2023-05-07T06:21:35;84.33;-23.73;95.23;;
43385;Laerm;28988;48.042;7.584;2023-05-07T06:24:01;84.33;-29.96;95.18;;
43385;Laerm;28988;48.042;7.584;2023-05-07T06:26:28;84.34;-23.73;95.46;;
43385;Laerm;28988;48.042;7.584;2023-05-07T06:28:54;84.30;-33.10;95.26;;
43385;Laerm;28988;48.042;7.584;2023-05-07T06:31:19;84.32;-57.68;95.66;;
43385;Laerm;28988;48.042;7.584;2023-05-07T06:33:47;84.32;-26.87;95.74;;
43385;Laerm;28988;48.042;7.584;2023-05-07T06:36:13;84.30;-57.68;95.20;;
43385;Laerm;28988;48.042;7.584;2023-05-07T06:38:38;84.32;-23.73;95.44;;
43385;Laerm;28988;48.042;7.584;2023-05-07T06:41:03;84.30;-57.68;95.34;;
43385;Laerm;28988;48.042;7.584;2023-05-07T06:43:28;84.30;-57.68;94.97;;
43385;Laerm;28988;48.042;7.584;2023-05-07T06:45:53;84.29;-29.73;94.68;;
43385;Laerm;28988;48.042;7.584;2023-05-07T06:48:19;84.30;-24.96;95.16;;
43385;Laerm;28988;48.042;7.584;2023-05-07T06:50:44;84.28;-28.92;95.35;;
43385;Laerm;28988;48.042;7.584;2023-05-07T06:53:09;84.28;-30.57;95.48;;
43385;Laerm;28988;48.042;7.584;2023-05-07T06:55:34;84.28;-39.80;95.24;;
43385;Laerm;28988;48.042;7.584;2023-05-07T06:58:00;84.28;-23.73;94.99;;
43385;Laerm;28988;48.042;7.584;2023-05-07T07:00:26;84.27;-33.10;95.06;;
43385;Laerm;28988;48.042;7.584;2023-05-07T07:02:51;84.28;-28.29;95.50;;
43385;Laerm;28988;48.042;7.584;2023-05-07T07:05:16;84.27;-23.73;95.21;;
43385;Laerm;28988;48.042;7.584;2023-05-07T07:07:42;84.26;-23.73;95.38;;
43385;Laerm;28988;48.042;7.584;2023-05-07T07:10:07;84.26;-28.29;94.80;;
43385;Laerm;28988;48.042;7.584;2023-05-07T07:12:32;84.25;-30.89;94.83;;
43385;Laerm;28988;48.042;7.584;2023-05-07T07:14:57;84.25;-20.54;95.06;;
43385;Laerm;28988;48.042;7.584;2023-05-07T07:17:22;84.25;-57.68;94.79;;
43385;Laerm;28988;48.042;7.584;2023-05-07T07:19:48;84.27;-23.73;94.55;;
43385;Laerm;28988;48.042;7.584;2023-05-07T07:22:13;84.26;-26.87;94.59;;
43385;Laerm;28988;48.042;7.584;2023-05-07T07:24:38;84.26;-23.73;94.93;;
43385;Laerm;28988;48.042;7.584;2023-05-07T07:27:03;84.26;-28.82;94.81;;
43385;Laerm;28988;48.042;7.584;2023-05-07T07:29:28;84.25;-49.78;94.67;;
43385;Laerm;28988;48.042;7.584;2023-05-07T07:31:54;84.25;-20.71;94.60;;
43385;Laerm;28988;48.042;7.584;2023-05-07T07:34:19;84.24;-57.68;94.36;;
43385;Laerm;28988;48.042;7.584;2023-05-07T07:36:44;84.24;-57.68;95.10;;
43385;Laerm;28988;48.042;7.584;2023-05-07T07:39:09;84.24;-23.73;94.84;;
43385;Laerm;28988;48.042;7.584;2023-05-07T07:41:35;84.23;-57.68;94.11;;
43385;Laerm;28988;48.042;7.584;2023-05-07T07:44:00;84.24;-57.68;95.09;;
43385;Laerm;28988;48.042;7.584;2023-05-07T07:46:25;84.23;-57.68;94.15;;
43385;Laerm;28988;48.042;7.584;2023-05-07T07:48:51;84.22;-35.53;94.56;;
43385;Laerm;28988;48.042;7.584;2023-05-07T07:51:16;84.22;-28.29;93.86;;
43385;Laerm;28988;48.042;7.584;2023-05-07T07:53:41;84.22;-22.68;94.42;;
43385;Laerm;28988;48.042;7.584;2023-05-07T07:56:07;84.20;-71.43;94.77;;
43385;Laerm;28988;48.042;7.584;2023-05-07T07:58:32;84.21;-57.68;94.13;;
43385;Laerm;28988;48.042;7.584;2023-05-07T08:00:57;84.21;-23.73;94.12;;
43385;Laerm;28988;48.042;7.584;2023-05-07T08:03:23;84.21;-57.68;94.84;;
43385;Laerm;28988;48.042;7.584;2023-05-07T08:05:48;84.21;-33.10;94.40;;
43385;Laerm;28988;48.042;7.584;2023-05-07T08:08:15;84.18;-28.29;94.42;;
43385;Laerm;28988;48.042;7.584;2023-05-07T08:10:40;84.19;-22.86;93.93;;
43385;Laerm;28988;48.042;7.584;2023-05-07T08:13:05;84.19;-57.68;94.41;;
43385;Laerm;28988;48.042;7.584;2023-05-07T08:15:31;84.18;-23.73;94.27;;
43385;Laerm;28988;48.042;7.584;2023-05-07T08:17:56;84.18;-28.29;94.00;;
43385;Laerm;28988;48.042;7.584;2023-05-07T08:20:22;84.19;-33.10;93.98;;
43385;Laerm;28988;48.042;7.584;2023-05-07T08:22:47;84.19;-28.75;93.95;;
43385;Laerm;28988;48.042;7.584;2023-05-07T08:25:12;84.19;-57.68;93.63;;
43385;Laerm;28988;48.042;7.584;2023-05-07T08:27:38;84.18;-23.73;94.43;;
43385;Laerm;28988;48.042;7.584;2023-05-07T08:30:03;84.18;-47.13;93.53;;
43385;Laerm;28988;48.042;7.584;2023-05-07T08:32:29;84.19;-57.68;93.99;;
43385;Laerm;28988;48.042;7.584;2023-05-07T08:34:54;84.19;-57.68;93.81;;
43385;Laerm;28988;48.042;7.584;2023-05-07T08:37:19;84.18;-28.29;93.82;;
43385;Laerm;28988;48.042;7.584;2023-05-07T08:39:45;84.17;-22.68;93.82;;
43385;Laerm;28988;48.042;7.584;2023-05-07T08:42:10;84.18;-57.68;94.28;;
43385;Laerm;28988;48.042;7.584;2023-05-07T08:44:36;84.18;-57.68;94.59;;
43385;Laerm;28988;48.042;7.584;2023-05-07T08:47:03;84.18;-28.29;93.82;;
43385;Laerm;28988;48.042;7.584;2023-05-07T08:49:31;84.17;-28.29;93.53;;
43385;Laerm;28988;48.042;7.584;2023-05-07T08:51:56;84.17;-30.20;94.01;;
43385;Laerm;28988;48.042;7.584;2023-05-07T08:54:21;84.17;-57.68;93.31;;
43385;Laerm;28988;48.042;7.584;2023-05-07T08:56:47;84.15;-57.68;93.86;;
43385;Laerm;28988;48.042;7.584;2023-05-07T08:59:12;84.15;-34.16;93.31;;
43385;Laerm;28988;48.042;7.584;2023-05-07T09:01:37;84.14;-57.68;93.40;;
43385;Laerm;28988;48.042;7.584;2023-05-07T09:04:03;84.14;-28.29;93.23;;
43385;Laerm;28988;48.042;7.584;2023-05-07T09:06:28;84.13;-57.68;93.09;;
43385;Laerm;28988;48.042;7.584;2023-05-07T09:08:54;84.14;-57.68;93.49;;
43385;Laerm;28988;48.042;7.584;2023-05-07T09:11:22;84.14;-57.68;93.14;;
43385;Laerm;28988;48.042;7.584;2023-05-07T09:13:48;84.14;-57.68;93.30;;
43385;Laerm;28988;48.042;7.584;2023-05-07T09:16:14;84.14;-27.23;93.39;;
43385;Laerm;28988;48.042;7.584;2023-05-07T09:18:43;84.14;-88.05;93.29;;
43385;Laerm;28988;48.042;7.584;2023-05-07T09:21:10;84.15;-23.73;93.24;;
43385;Laerm;28988;48.042;7.584;2023-05-07T09:23:35;84.14;-33.10;93.26;;
43385;Laerm;28988;48.042;7.584;2023-05-07T09:26:01;84.14;-33.10;93.21;;
43385;Laerm;28988;48.042;7.584;2023-05-07T09:28:27;84.15;-34.16;92.94;;
43385;Laerm;28988;48.042;7.584;2023-05-07T09:30:52;84.14;-57.68;93.21;;
43385;Laerm;28988;48.042;7.584;2023-05-07T09:33:17;84.15;-57.68;93.41;;
43385;Laerm;28988;48.042;7.584;2023-05-07T09:35:42;84.14;-57.68;93.49;;
43385;Laerm;28988;48.042;7.584;2023-05-07T09:38:07;84.16;-23.73;94.01;;
43385;Laerm;28988;48.042;7.584;2023-05-07T09:40:33;84.14;-57.68;93.31;;
43385;Laerm;28988;48.042;7.584;2023-05-07T09:43:08;84.16;-57.68;93.49;;
43385;Laerm;28988;48.042;7.584;2023-05-07T09:45:33;84.14;-28.29;92.99;;
43385;Laerm;28988;48.042;7.584;2023-05-07T09:47:58;84.16;-34.16;93.67;;
43385;Laerm;28988;48.042;7.584;2023-05-07T09:50:28;84.16;-36.12;93.19;;
43385;Laerm;28988;48.042;7.584;2023-05-07T09:52:54;84.16;-34.16;92.94;;
43385;Laerm;28988;48.042;7.584;2023-05-07T09:55:19;84.16;-57.68;93.48;;
43385;Laerm;28988;48.042;7.584;2023-05-07T09:57:45;84.17;-28.29;93.23;;
43385;Laerm;28988;48.042;7.584;2023-05-07T10:00:11;84.16;-57.68;93.17;;
43385;Laerm;28988;48.042;7.584;2023-05-07T10:02:36;84.16;-57.68;93.50;;
43385;Laerm;28988;48.042;7.584;2023-05-07T10:05:06;84.18;-57.68;93.80;;
43385;Laerm;28988;48.042;7.584;2023-05-07T10:07:31;84.17;-30.03;93.82;;
43385;Laerm;28988;48.042;7.584;2023-05-07T10:09:56;84.17;-57.68;93.52;;
43385;Laerm;28988;48.042;7.584;2023-05-07T10:12:22;84.18;-33.10;94.38;;
43385;Laerm;28988;48.042;7.584;2023-05-07T10:14:48;84.19;-31.18;94.23;;
43385;Laerm;28988;48.042;7.584;2023-05-07T10:17:13;84.19;-23.73;93.90;;
43385;Laerm;28988;48.042;7.584;2023-05-07T10:19:41;84.17;-28.29;93.49;;
43385;Laerm;28988;48.042;7.584;2023-05-07T10:22:07;84.20;-57.68;94.27;;
43385;Laerm;28988;48.042;7.584;2023-05-07T10:24:33;84.20;-45.84;94.38;;
43385;Laerm;28988;48.042;7.584;2023-05-07T10:27:02;84.18;-33.10;94.11;;
43385;Laerm;28988;48.042;7.584;2023-05-07T10:34:42;84.19;-38.42;94.12;;
43385;Laerm;28988;48.042;7.584;2023-05-07T10:37:08;84.20;-57.68;94.89;;
43385;Laerm;28988;48.042;7.584;2023-05-07T10:39:34;84.20;-57.68;94.13;;
43385;Laerm;28988;48.042;7.584;2023-05-07T10:42:09;84.20;-28.29;94.54;;
43385;Laerm;28988;48.042;7.584;2023-05-07T10:44:34;84.19;-28.29;94.11;;
43385;Laerm;28988;48.042;7.584;2023-05-07T10:47:07;84.23;-33.10;94.67;;
43385;Laerm;28988;48.042;7.584;2023-05-07T10:49:34;84.20;-57.68;94.12;;
43385;Laerm;28988;48.042;7.584;2023-05-07T10:54:37;84.15;-20.71;93.49;;
43385;Laerm;28988;48.042;7.584;2023-05-07T10:59:47;84.15;-33.10;94.34;;
43385;Laerm;28988;48.042;7.584;2023-05-07T11:02:12;84.15;-40.41;93.13;;
43385;Laerm;28988;48.042;7.584;2023-05-07T11:04:39;84.13;-23.67;92.99;;
43385;Laerm;28988;48.042;7.584;2023-05-07T11:15:01;84.14;-57.68;93.31;;
43385;Laerm;28988;48.042;7.584;2023-05-07T11:17:27;84.16;-57.68;93.75;;
43385;Laerm;28988;48.042;7.584;2023-05-07T11:19:56;84.17;-57.68;93.63;;
43385;Laerm;28988;48.042;7.584;2023-05-07T11:24:57;84.17;-57.68;94.21;;
43385;Laerm;28988;48.042;7.584;2023-05-07T11:27:24;84.18;-28.29;94.05;;
43385;Laerm;28988;48.042;7.584;2023-05-07T11:29:49;84.17;-57.68;93.79;;
43385;Laerm;28988;48.042;7.584;2023-05-07T11:32:15;84.18;-57.68;93.86;;
43385;Laerm;28988;48.042;7.584;2023-05-07T11:34:40;84.18;-33.10;93.86;;
43385;Laerm;28988;48.042;7.584;2023-05-07T11:37:05;84.18;-28.29;93.86;;
43385;Laerm;28988;48.042;7.584;2023-05-07T11:39:31;84.19;-57.68;93.84;;
43385;Laerm;28988;48.042;7.584;2023-05-07T11:41:58;84.19;-28.29;94.21;;
43385;Laerm;28988;48.042;7.584;2023-05-07T11:44:23;84.19;-23.73;94.17;;
43385;Laerm;28988;48.042;7.584;2023-05-07T11:46:48;84.19;-23.73;93.94;;
43385;Laerm;28988;48.042;7.584;2023-05-07T11:49:14;84.21;-28.29;93.86;;
43385;Laerm;28988;48.042;7.584;2023-05-07T11:51:39;84.19;-57.68;94.11;;
43385;Laerm;28988;48.042;7.584;2023-05-07T11:54:07;84.20;-23.73;94.22;;
43385;Laerm;28988;48.042;7.584;2023-05-07T11:56:34;84.20;-33.10;94.76;;
43385;Laerm;28988;48.042;7.584;2023-05-07T11:58:59;84.21;-57.68;94.89;;
43385;Laerm;28988;48.042;7.584;2023-05-07T12:01:24;84.20;-28.29;94.23;;
43385;Laerm;28988;48.042;7.584;2023-05-07T12:03:49;84.22;-30.70;94.46;;
43385;Laerm;28988;48.042;7.584;2023-05-07T12:06:15;84.21;-57.68;94.38;;
43385;Laerm;28988;48.042;7.584;2023-05-07T12:08:41;84.22;-33.10;94.49;;
43385;Laerm;28988;48.042;7.584;2023-05-07T12:11:07;84.22;-57.68;94.43;;
43385;Laerm;28988;48.042;7.584;2023-05-07T12:13:33;84.21;-57.68;93.94;;
43385;Laerm;28988;48.042;7.584;2023-05-07T12:15:59;84.21;-23.73;93.99;;
43385;Laerm;28988;48.042;7.584;2023-05-07T12:18:24;84.21;-28.29;94.39;;
43385;Laerm;28988;48.042;7.584;2023-05-07T12:20:49;84.22;-28.29;94.30;;
43385;Laerm;28988;48.042;7.584;2023-05-07T12:23:15;84.20;-57.68;93.99;;
43385;Laerm;28988;48.042;7.584;2023-05-07T12:25:41;84.20;-34.16;94.14;;
43385;Laerm;28988;48.042;7.584;2023-05-07T12:28:12;84.20;-57.68;93.80;;
43385;Laerm;28988;48.042;7.584;2023-05-07T12:30:38;84.19;-23.73;93.53;;
43385;Laerm;28988;48.042;7.584;2023-05-07T12:33:03;84.20;-57.68;94.79;;
43385;Laerm;28988;48.042;7.584;2023-05-07T12:35:32;84.19;-22.86;93.50;;
43385;Laerm;28988;48.042;7.584;2023-05-07T12:38:00;84.19;-28.29;94.07;;
43385;Laerm;28988;48.042;7.584;2023-05-07T12:40:36;84.18;-22.68;94.16;;
43385;Laerm;28988;48.042;7.584;2023-05-07T12:43:02;84.20;-33.10;94.49;;
43385;Laerm;28988;48.042;7.584;2023-05-07T12:45:27;84.18;-57.68;93.85;;
43385;Laerm;28988;48.042;7.584;2023-05-07T12:47:52;84.18;-57.68;94.15;;
43385;Laerm;28988;48.042;7.584;2023-05-07T12:50:17;84.19;-57.68;93.82;;
43385;Laerm;28988;48.042;7.584;2023-05-07T12:52:43;84.18;-57.68;94.35;;
43385;Laerm;28988;48.042;7.584;2023-05-07T12:55:09;84.18;-57.68;94.64;;
43385;Laerm;28988;48.042;7.584;2023-05-07T12:57:38;84.17;-57.68;93.60;;
43385;Laerm;28988;48.042;7.584;2023-05-07T13:00:04;84.18;-57.68;94.40;;
43385;Laerm;28988;48.042;7.584;2023-05-07T13:02:33;84.17;-28.29;93.51;;
43385;Laerm;28988;48.042;7.584;2023-05-07T13:04:59;84.18;-57.68;93.66;;
43385;Laerm;28988;48.042;7.584;2023-05-07T13:07:25;84.18;-57.68;93.53;;
43385;Laerm;28988;48.042;7.584;2023-05-07T13:09:50;84.18;-28.29;93.86;;
43385;Laerm;28988;48.042;7.584;2023-05-07T13:12:15;84.17;-57.68;93.36;;
43385;Laerm;28988;48.042;7.584;2023-05-07T13:14:40;84.19;-23.73;93.66;;
43385;Laerm;28988;48.042;7.584;2023-05-07T13:17:05;84.18;-34.16;93.84;;
43385;Laerm;28988;48.042;7.584;2023-05-07T13:19:31;84.16;-57.68;93.80;;
43385;Laerm;28988;48.042;7.584;2023-05-07T13:21:56;84.17;-57.68;93.83;;
43385;Laerm;28988;48.042;7.584;2023-05-07T13:24:21;84.16;-28.29;94.13;;
43385;Laerm;28988;48.042;7.584;2023-05-07T13:26:46;84.17;-34.16;93.65;;
43385;Laerm;28988;48.042;7.584;2023-05-07T13:29:11;84.17;-57.68;93.52;;
43385;Laerm;28988;48.042;7.584;2023-05-07T13:31:36;84.15;-40.13;93.36;;
43385;Laerm;28988;48.042;7.584;2023-05-07T13:34:02;84.16;-57.68;93.43;;
43385;Laerm;28988;48.042;7.584;2023-05-07T13:36:27;84.16;-33.10;93.71;;
43385;Laerm;28988;48.042;7.584;2023-05-07T13:38:53;84.16;-33.10;93.63;;
43385;Laerm;28988;48.042;7.584;2023-05-07T13:41:19;84.15;-38.65;93.31;;
43385;Laerm;28988;48.042;7.584;2023-05-07T13:43:45;84.14;-57.68;93.51;;